Time;durP1;ratioP1;P1;durP2;ratioP2;P2;SDS_P1;SDS_P2;PMS_P1;PMS_P2;Temp;Humidity;BMP_temperature;BMP_pressure;BME280_temperature;BME280_humidity;BME280_pressure;Samples;Min_cycle;Max_cycle;Signal;HPM_P1;HPM_P2
2022/10/24 00:00:08;;;;;;;5.60;4.25;;;13.20;99.90;;;-141.84;100.00;16431.44;5108932;28;20694;-61
2022/10/24 00:02:36;;;;;;;5.38;4.72;;;13.10;99.90;;;-141.84;100.00;16443.63;5109101;28;20637;-60
2022/10/24 00:05:06;;;;;;;6.30;4.38;;;13.00;99.90;;;-141.84;100.00;16417.22;5109012;28;20227;-61
2022/10/24 00:07:34;;;;;;;6.03;4.43;;;13.00;99.90;;;-141.84;100.00;16370.50;5107889;28;20227;-60
2022/10/24 00:10:02;;;;;;;8.98;4.93;;;13.10;99.90;;;-141.84;100.00;16305.53;5108469;28;20220;-60
2022/10/24 00:12:30;;;;;;;5.75;4.30;;;13.00;99.90;;;-141.84;100.00;16303.50;5108533;28;20592;-61
2022/10/24 00:14:59;;;;;;;5.10;4.60;;;13.00;99.90;;;-141.84;100.00;16269.00;5108785;27;20257;-60
2022/10/24 00:17:27;;;;;;;5.20;4.68;;;13.10;99.90;;;-141.84;100.00;16208.06;5108697;28;20246;-60
2022/10/24 00:19:57;;;;;;;4.68;4.15;;;13.10;99.90;;;-141.84;100.00;16141.06;5108420;28;20733;-61
2022/10/24 00:22:27;;;;;;;5.30;4.45;;;13.10;99.90;;;-141.84;100.00;16130.91;5108892;28;20434;-60
2022/10/24 00:24:55;;;;;;;5.75;4.32;;;13.10;99.90;;;-141.84;100.00;16088.28;5108813;28;20222;-61
2022/10/24 00:27:23;;;;;;;6.32;4.47;;;13.20;99.90;;;-141.84;100.00;16055.78;5109291;28;20627;-60
2022/10/24 00:29:51;;;;;;;5.43;4.47;;;13.20;99.90;;;-141.84;100.00;16000.97;5108180;28;20231;-61
2022/10/24 00:32:19;;;;;;;6.13;4.40;;;13.30;99.90;;;-141.84;100.00;16000.97;5107453;28;20231;-62
2022/10/24 00:34:47;;;;;;;6.03;3.78;;;13.30;99.90;;;-141.84;100.00;15982.69;5108022;28;20235;-60
2022/10/24 00:37:15;;;;;;;5.03;3.92;;;13.30;99.90;;;-141.84;100.00;15933.97;5108178;28;20228;-60
2022/10/24 00:39:45;;;;;;;5.65;4.03;;;13.40;99.90;;;-141.84;100.00;15950.22;5109099;28;20215;-60
2022/10/24 00:42:13;;;;;;;6.55;4.20;;;13.40;99.90;;;-141.84;99.87;15897.44;5108513;28;20219;-61
2022/10/24 00:44:43;;;;;;;4.78;3.70;;;13.40;99.90;;;-141.84;98.81;15962.41;5108354;28;20234;-59
2022/10/24 00:47:17;;;;;;;5.75;4.25;;;13.50;99.90;;;-141.84;98.25;15950.22;5108551;28;20229;-60
2022/10/24 00:49:51;;;;;;;4.53;3.97;;;13.50;99.90;;;-141.84;97.18;15978.63;5107767;28;20757;-60
2022/10/24 00:52:25;;;;;;;5.30;3.55;;;13.50;99.90;;;-141.84;96.97;15968.50;5108504;28;20226;-60
2022/10/24 00:54:58;;;;;;;6.05;3.97;;;13.40;99.90;;;-141.84;97.10;15966.47;5108659;28;20180;-61
2022/10/24 00:57:33;;;;;;;5.25;4.10;;;13.50;99.90;;;-141.84;96.99;15954.28;5092567;28;20309;-61
2022/10/24 01:00:08;;;;;;;4.30;3.65;;;13.40;99.90;;;-141.84;97.35;15893.38;5108117;28;20236;-60
2022/10/24 01:02:37;;;;;;;4.05;3.65;;;13.40;99.90;;;-141.84;97.67;15881.19;5107767;28;20230;-60
2022/10/24 01:05:09;;;;;;;4.10;3.65;;;13.40;99.90;;;-141.84;97.75;15895.41;5107926;28;20230;-61
2022/10/24 01:07:52;;;;;;;5.15;3.67;;;13.40;99.90;;;-141.84;97.72;15828.41;5108396;28;20231;-59
2022/10/24 01:10:44;;;;;;;5.15;4.00;;;13.40;99.90;;;-141.84;97.04;15883.22;5108339;28;20279;-60
2022/10/24 01:13:27;;;;;;;6.32;3.65;;;13.40;99.90;;;-141.84;96.37;15897.44;5108155;28;20228;-61
2022/10/24 01:16:06;;;;;;;6.80;4.07;;;13.50;99.90;;;-141.84;95.65;15944.13;5107992;28;20271;-60
2022/10/24 01:18:42;;;;;;;4.97;4.05;;;13.50;99.90;;;-141.84;95.46;15998.94;5108793;28;20264;-60
2022/10/24 01:21:28;;;;;;;5.03;3.60;;;13.50;99.90;;;-141.84;95.73;15962.41;5107891;28;20257;-60
2022/10/24 01:24:28;;;;;;;4.30;3.88;;;13.40;99.90;;;-141.84;96.32;15913.66;5107608;28;20651;-60
2022/10/24 01:27:39;;;;;;;5.43;3.78;;;13.40;99.90;;;-141.84;96.74;15848.69;5107238;28;20284;-60
2022/10/24 01:30:11;;;;;;;4.15;3.70;;;13.30;99.90;;;-141.84;97.08;15826.38;5108061;28;20230;-60
2022/10/24 01:32:47;;;;;;;5.68;3.85;;;13.30;99.90;;;-141.84;97.44;15743.13;5107932;28;20276;-60
2022/10/24 01:35:34;;;;;;;6.57;4.05;;;13.20;99.90;;;-141.84;97.87;15730.94;5107254;28;20280;-60
2022/10/24 01:38:15;;;;;;;4.60;3.85;;;13.20;99.90;;;-141.84;98.15;15661.91;5092519;28;20230;-60
2022/10/24 01:40:52;;;;;;;5.55;4.43;;;13.20;99.90;;;-141.84;98.56;15623.34;5107846;28;20234;-60
2022/10/24 01:43:27;;;;;;;5.93;4.22;;;13.10;99.90;;;-141.84;98.75;15596.94;5107859;28;20226;-60
2022/10/24 01:46:04;;;;;;;4.57;3.90;;;13.10;99.90;;;-141.84;98.89;15578.69;5107917;28;20260;-60
2022/10/24 01:48:40;;;;;;;4.05;3.63;;;13.10;99.90;;;-141.84;98.87;15536.03;5108716;28;20215;-60
2022/10/24 01:51:13;;;;;;;4.95;3.92;;;13.10;99.90;;;-141.84;98.86;15527.94;5108380;28;20223;-60
2022/10/24 01:53:43;;;;;;;7.30;4.20;;;13.00;99.90;;;-141.84;99.14;15495.44;5091132;28;20232;-60
2022/10/24 01:56:11;;;;;;;5.35;4.20;;;13.00;99.90;;;-141.84;99.29;15432.50;5107293;28;20261;-60
2022/10/24 01:58:39;;;;;;;4.90;4.18;;;13.00;99.90;;;-141.84;99.24;15410.19;5107610;28;20223;-60
2022/10/24 02:01:19;;;;;;;4.95;3.85;;;13.00;99.90;;;-141.84;99.46;15430.47;5107764;28;20729;-61
2022/10/24 02:03:51;;;;;;;7.82;4.55;;;12.90;99.90;;;-141.84;99.43;15426.41;5107249;28;20211;-60
2022/10/24 02:06:28;;;;;;;6.68;4.35;;;12.90;99.90;;;-141.84;99.14;15406.13;5108276;28;20218;-60
2022/10/24 02:09:04;;;;;;;5.60;4.45;;;12.90;99.90;;;-141.84;99.23;15373.63;5107563;28;20584;-60
2022/10/24 02:11:38;;;;;;;7.55;4.82;;;12.90;99.90;;;-141.84;99.02;15424.38;5107538;28;20320;-60
2022/10/24 02:14:16;;;;;;;7.60;5.85;;;12.90;99.90;;;-141.84;99.18;15351.31;5110630;28;20224;-60
2022/10/24 02:16:46;;;;;;;7.03;4.75;;;12.90;99.90;;;-141.84;98.78;15385.81;5110707;28;20223;-61
2022/10/24 02:19:15;;;;;;;6.65;4.45;;;12.90;99.90;;;-141.84;98.83;15369.56;5111251;28;20299;-61
2022/10/24 02:21:53;;;;;;;6.40;4.70;;;12.90;99.90;;;-141.84;98.98;15316.81;5111808;28;20223;-61
2022/10/24 02:24:28;;;;;;;7.85;5.00;;;12.90;99.90;;;-141.84;99.23;15326.94;5111429;28;20227;-60
2022/10/24 02:27:03;;;;;;;7.60;5.00;;;12.80;99.90;;;-141.84;99.38;15284.31;5110687;28;20238;-61
2022/10/24 02:29:39;;;;;;;9.20;4.37;;;12.80;99.90;;;-141.84;99.41;15255.91;5110926;28;20260;-61
2022/10/24 02:32:15;;;;;;;6.63;4.70;;;12.80;99.90;;;-141.84;99.54;15308.69;5111058;28;20591;-60
2022/10/24 02:34:44;;;;;;;6.40;4.32;;;12.80;99.90;;;-141.84;99.66;15276.19;5110916;28;20280;-59
2022/10/24 02:37:15;;;;;;;6.17;4.03;;;12.70;99.90;;;-141.84;99.86;15217.34;5110868;28;20254;-62
2022/10/24 02:39:47;;;;;;;5.78;4.32;;;12.70;99.90;;;-141.84;100.00;15207.19;5111438;28;20600;-59
2022/10/24 02:42:17;;;;;;;8.15;6.60;;;12.60;99.90;;;-141.84;100.00;15231.53;5110337;28;20743;-60
2022/10/24 02:44:47;;;;;;;11.03;6.43;;;12.60;99.90;;;-141.84;100.00;15215.31;5110735;28;20227;-61
2022/10/24 02:47:21;;;;;;;9.27;8.00;;;12.60;99.90;;;-141.84;100.00;15170.63;5110201;28;20227;-62
2022/10/24 02:49:49;;;;;;;10.60;8.50;;;12.60;99.90;;;-141.84;100.00;15146.28;5110073;28;20308;-61
2022/10/24 02:52:18;;;;;;;10.13;7.93;;;12.50;99.90;;;-141.84;100.00;15140.19;5110454;28;20479;-59
2022/10/24 02:54:46;;;;;;;7.80;5.47;;;12.50;99.90;;;-141.84;100.00;15144.25;5111139;28;20230;-62
2022/10/24 02:57:15;;;;;;;7.43;5.35;;;12.50;99.90;;;-141.84;100.00;15138.16;5110891;28;20340;-61
2022/10/24 02:59:43;;;;;;;4.88;4.35;;;12.50;99.90;;;-141.84;100.00;15123.94;5110182;28;20231;-60
2022/10/24 03:02:10;;;;;;;5.97;4.80;;;12.40;99.90;;;-141.84;100.00;15097.56;5110167;28;20227;-61
2022/10/24 03:04:40;;;;;;;7.65;4.43;;;12.40;99.90;;;-141.84;100.00;15097.56;5110144;28;20321;-61
2022/10/24 03:07:08;;;;;;;6.83;4.77;;;12.40;99.90;;;-141.84;100.00;15093.50;5110339;28;20706;-60
2022/10/24 03:09:36;;;;;;;4.80;4.30;;;12.40;99.90;;;-141.84;100.00;15081.31;5111009;28;20678;-61
2022/10/24 03:12:04;;;;;;;6.30;4.77;;;12.40;99.90;;;-141.84;100.00;15091.47;5108996;28;20231;-60
2022/10/24 03:14:33;;;;;;;5.93;4.43;;;12.30;99.90;;;-141.84;100.00;15085.38;5109156;28;20227;-61
2022/10/24 03:17:01;;;;;;;6.25;4.72;;;12.30;99.90;;;-141.84;100.00;15063.06;5109712;28;20228;-60
2022/10/24 03:19:29;;;;;;;6.72;4.60;;;12.30;99.90;;;-141.84;100.00;15119.91;5109643;28;20223;-59
2022/10/24 03:21:58;;;;;;;5.40;4.80;;;12.30;99.90;;;-141.84;100.00;15067.13;5110019;28;20211;-60
2022/10/24 03:24:26;;;;;;;7.97;4.93;;;12.30;99.90;;;-141.84;100.00;15044.78;5109775;28;20555;-60
2022/10/24 03:27:11;;;;;;;5.78;4.65;;;12.30;99.90;;;-141.84;100.00;15061.03;5110171;28;20576;-60
2022/10/24 03:29:39;;;;;;;6.35;4.22;;;12.30;99.90;;;-141.84;100.00;15048.84;5109752;28;20272;-60
2022/10/24 03:32:08;;;;;;;5.70;4.93;;;12.40;99.90;;;-141.84;100.00;15059.00;5109703;28;20238;-60
2022/10/24 03:34:36;;;;;;;6.32;4.80;;;12.30;99.90;;;-141.84;100.00;15065.09;5108313;28;20239;-61
2022/10/24 03:37:05;;;;;;;8.43;5.13;;;12.30;99.90;;;-141.84;100.00;15022.47;5108642;28;20179;-60
2022/10/24 03:39:33;;;;;;;7.18;4.75;;;12.30;99.90;;;-141.84;100.00;14983.88;5109915;28;20763;-61
2022/10/24 03:42:01;;;;;;;7.07;4.90;;;12.40;99.90;;;-141.84;100.00;15014.34;5109484;28;20296;-60
2022/10/24 03:44:29;;;;;;;9.43;5.00;;;12.30;99.90;;;-141.84;100.00;14992.00;5109437;28;20231;-59
2022/10/24 03:46:57;;;;;;;8.43;5.63;;;12.30;99.90;;;-141.84;100.00;14996.06;5109417;28;20227;-61
2022/10/24 03:49:26;;;;;;;10.35;5.07;;;12.40;99.90;;;-141.84;100.00;14975.78;5109479;28;20235;-61
2022/10/24 03:51:54;;;;;;;10.90;5.33;;;12.40;99.90;;;-141.84;100.00;15010.28;5109762;28;20219;-61
2022/10/24 03:54:23;;;;;;;6.40;4.83;;;12.40;99.90;;;-141.84;100.00;15028.53;5109619;28;20219;-61
2022/10/24 03:56:51;;;;;;;8.90;4.97;;;12.50;99.90;;;-141.84;100.00;14983.88;5108787;28;20219;-61
2022/10/24 03:59:19;;;;;;;6.50;5.10;;;12.70;99.90;;;-141.84;100.00;14975.78;5108486;28;20223;-61
2022/10/24 04:01:47;;;;;;;8.35;4.53;;;12.80;99.90;;;-141.84;100.00;15020.44;5108081;28;20223;-64
2022/10/24 04:04:15;;;;;;;8.15;5.10;;;12.70;99.90;;;-141.84;100.00;14870.22;5109000;28;20235;-63
2022/10/24 04:06:43;;;;;;;8.05;4.85;;;12.80;99.90;;;-141.84;100.00;14878.34;5109811;28;20219;-62
2022/10/24 04:09:12;;;;;;;6.63;4.68;;;12.80;99.90;;;-141.84;100.00;14878.34;5109303;28;20223;-62
2022/10/24 04:11:41;;;;;;;8.20;4.40;;;12.80;99.90;;;-141.84;100.00;14872.25;5108846;28;20230;-61
2022/10/24 04:14:09;;;;;;;9.20;5.05;;;12.80;99.90;;;-141.84;100.00;14864.13;5108710;28;20710;-62
2022/10/24 04:16:37;;;;;;;7.63;4.60;;;12.80;99.90;;;-141.84;100.00;14856.00;5108973;28;20234;-61
2022/10/24 04:19:05;;;;;;;7.13;4.13;;;12.80;99.90;;;-141.84;100.00;14862.09;5108789;27;20234;-61
2022/10/24 04:21:33;;;;;;;8.98;4.47;;;12.80;99.90;;;-141.84;100.00;14856.00;5109599;28;20218;-60
2022/10/24 04:24:01;;;;;;;9.07;4.25;;;12.80;99.90;;;-141.84;100.00;14847.91;5108447;28;20219;-62
2022/10/24 04:26:29;;;;;;;6.80;4.28;;;12.80;99.90;;;-141.84;100.00;14813.38;5107389;28;20277;-61
2022/10/24 04:28:58;;;;;;;8.02;4.30;;;12.80;99.90;;;-141.84;100.00;14849.94;5091700;28;20227;-62
2022/10/24 04:31:27;;;;;;;8.38;4.80;;;12.90;99.90;;;-141.84;100.00;14837.75;5110635;28;20227;-62
2022/10/24 04:33:55;;;;;;;9.63;4.20;;;12.90;99.90;;;-141.84;100.00;14821.50;5108603;28;20214;-61
2022/10/24 04:36:23;;;;;;;6.90;4.40;;;12.90;99.90;;;-141.84;100.00;14805.28;5108120;28;20652;-62
2022/10/24 04:38:51;;;;;;;5.97;3.70;;;12.90;99.90;;;-141.84;100.00;14799.19;5108497;27;20231;-62
2022/10/24 04:41:19;;;;;;;6.88;3.97;;;12.80;99.90;;;-141.84;100.00;14776.84;5110548;28;20706;-61
2022/10/24 04:43:47;;;;;;;7.78;4.40;;;12.90;99.90;;;-141.84;100.00;14813.38;5107892;28;20770;-62
2022/10/24 04:46:16;;;;;;;5.90;4.22;;;12.80;99.90;;;-141.84;100.00;14720.03;5108593;28;20227;-61
2022/10/24 04:48:44;;;;;;;6.10;3.88;;;12.80;99.90;;;-141.84;100.00;14744.38;5109155;28;20223;-61
2022/10/24 04:51:13;;;;;;;7.68;4.07;;;12.80;99.90;;;-141.84;100.00;14738.28;5108732;28;20632;-62
2022/10/24 04:53:47;;;;;;;9.65;4.95;;;12.80;99.90;;;-141.84;100.00;14720.03;5091952;28;20273;-62
2022/10/24 04:56:15;;;;;;;8.30;4.20;;;12.80;99.90;;;-141.84;100.00;14715.97;5108399;28;20223;-62
2022/10/24 04:58:43;;;;;;;9.25;4.70;;;12.80;99.90;;;-141.84;100.00;14715.97;5107861;28;20240;-61
2022/10/24 05:01:11;;;;;;;9.88;4.75;;;12.80;99.90;;;-141.84;100.00;14705.81;5108321;28;20227;-62
2022/10/24 05:03:40;;;;;;;6.72;4.68;;;12.80;99.90;;;-141.84;100.00;14697.69;5108709;28;20261;-61
2022/10/24 05:06:09;;;;;;;8.73;4.25;;;12.80;99.90;;;-141.84;100.00;14685.53;5108285;28;20227;-62
2022/10/24 05:08:37;;;;;;;7.05;4.05;;;12.80;99.90;;;-141.84;100.00;14707.84;5107760;28;20233;-62
2022/10/24 05:11:05;;;;;;;8.93;4.05;;;12.80;99.90;;;-141.84;100.00;14667.25;5107840;28;20617;-62
2022/10/24 05:13:33;;;;;;;8.48;4.35;;;12.80;99.90;;;-141.84;100.00;14673.34;5107802;28;20239;-61
2022/10/24 05:16:04;;;;;;;7.03;4.40;;;12.80;99.90;;;-141.84;100.00;14661.16;5106945;28;20191;-62
2022/10/24 05:18:33;;;;;;;9.65;4.65;;;12.70;99.90;;;-141.84;100.00;14671.31;5108350;28;20277;-62
2022/10/24 05:21:02;;;;;;;7.32;4.38;;;12.70;99.90;;;-141.84;100.00;14651.00;5107585;28;20284;-62
2022/10/24 05:23:30;;;;;;;10.65;3.70;;;12.80;99.90;;;-141.84;100.00;14665.22;5107931;28;20234;-62
2022/10/24 05:25:58;;;;;;;9.07;4.07;;;12.80;99.90;;;-141.84;100.00;14695.66;5107942;28;20231;-63
2022/10/24 05:28:26;;;;;;;5.88;3.80;;;12.80;99.90;;;-141.84;100.00;14691.59;5107632;28;20223;-61
2022/10/24 05:30:54;;;;;;;7.22;4.30;;;12.90;99.90;;;-141.84;100.00;14703.78;5107983;28;20631;-61
2022/10/24 05:33:23;;;;;;;6.38;3.85;;;13.00;99.90;;;-141.84;100.00;14697.69;5108808;28;20215;-62
2022/10/24 05:35:51;;;;;;;5.07;3.80;;;13.00;99.90;;;-141.84;100.00;14655.06;5108039;28;20408;-61
2022/10/24 05:38:21;;;;;;;7.35;3.95;;;13.00;99.90;;;-141.84;100.00;14648.97;5107214;28;20230;-62
2022/10/24 05:40:50;;;;;;;6.07;3.58;;;13.00;99.90;;;-141.84;100.00;14685.53;5106629;28;20227;-62
2022/10/24 05:43:18;;;;;;;7.18;3.80;;;13.00;99.90;;;-141.84;100.00;14632.75;5107940;28;20691;-62
2022/10/24 05:45:49;;;;;;;5.00;3.45;;;13.10;99.90;;;-141.84;100.00;14624.63;5107190;28;20288;-62
2022/10/24 05:48:18;;;;;;;7.30;3.78;;;13.20;99.90;;;-141.84;100.00;14638.84;5114457;27;20231;-61
2022/10/24 05:50:46;;;;;;;6.72;3.60;;;13.10;99.90;;;-141.84;100.00;14598.25;5111779;28;20223;-61
2022/10/24 05:53:14;;;;;;;6.93;3.38;;;13.10;99.90;;;-141.84;100.00;14648.97;5111667;28;20227;-61
2022/10/24 05:55:43;;;;;;;8.07;3.63;;;13.20;99.90;;;-141.84;100.00;14634.78;5111569;28;20268;-61
2022/10/24 05:58:11;;;;;;;7.35;4.00;;;13.10;99.90;;;-141.84;100.00;14616.50;5111751;28;20226;-60
2022/10/24 06:00:39;;;;;;;8.52;3.30;;;13.30;99.90;;;-141.84;100.00;14679.44;5111744;28;20727;-61
2022/10/24 06:03:09;;;;;;;8.00;3.65;;;13.40;99.90;;;-141.84;100.00;14713.94;5110902;28;20575;-62
2022/10/24 06:05:37;;;;;;;6.20;3.28;;;13.40;99.90;;;-141.84;100.00;14681.47;5112020;28;20226;-61
2022/10/24 06:08:05;;;;;;;7.13;3.70;;;13.50;99.90;;;-141.84;100.00;14675.38;5112944;28;20236;-62
2022/10/24 06:10:34;;;;;;;6.03;3.15;;;13.50;99.90;;;-141.84;100.00;14687.53;5113581;28;20224;-62
2022/10/24 06:13:04;;;;;;;4.78;2.90;;;13.60;99.90;;;-141.84;100.00;14709.88;5113322;28;20295;-62
2022/10/24 06:15:32;;;;;;;6.50;3.15;;;13.60;99.90;;;-141.84;100.00;14697.69;5113997;28;20215;-61
2022/10/24 06:18:00;;;;;;;6.22;3.35;;;13.70;99.90;;;-141.84;100.00;14673.34;5113488;28;20238;-62
2022/10/24 06:20:28;;;;;;;5.88;3.00;;;13.70;99.90;;;-141.84;100.00;14699.72;5113346;28;20257;-60
2022/10/24 06:22:56;;;;;;;8.60;4.13;;;13.70;99.90;;;-141.84;100.00;14724.09;5112586;27;20238;-62
2022/10/24 06:25:24;;;;;;;5.13;3.60;;;13.70;99.90;;;-141.84;100.00;14722.06;5112609;28;20231;-62
2022/10/24 06:27:52;;;;;;;5.30;3.22;;;13.80;99.90;;;-141.84;100.00;14734.22;5110556;28;20216;-61
2022/10/24 06:30:22;;;;;;;7.50;3.63;;;13.90;99.90;;;-141.84;100.00;14766.72;5110573;28;20245;-61
2022/10/24 06:32:50;;;;;;;6.70;3.72;;;13.90;99.90;;;-141.84;100.00;14764.69;5113008;28;20232;-63
2022/10/24 06:35:20;;;;;;;4.50;2.70;;;14.00;99.90;;;-141.84;100.00;14772.78;5113074;28;20223;-62
2022/10/24 06:37:48;;;;;;;8.95;2.97;;;14.10;99.90;;;-141.84;100.00;14746.41;5104372;28;20810;-63
2022/10/24 06:40:18;;;;;;;8.82;2.97;;;14.10;99.90;;;-141.84;100.00;14807.31;5101037;28;20746;-62
2022/10/24 06:42:46;;;;;;;5.38;2.60;;;14.10;99.90;;;-141.84;98.61;14856.00;5110680;28;20220;-64
2022/10/24 06:45:15;;;;;;;6.45;3.80;;;14.20;99.90;;;-141.84;95.28;15050.88;5111078;28;20212;-62
2022/10/24 06:47:44;;;;;;;8.13;3.63;;;14.30;99.90;;;-141.84;94.59;15136.13;5110860;28;20710;-61
2022/10/24 06:50:14;;;;;;;6.53;2.58;;;14.40;99.90;;;-141.84;94.15;15184.84;5110660;28;20273;-62
2022/10/24 06:52:42;;;;;;;5.63;2.60;;;14.40;99.90;;;-141.84;92.88;15296.50;5109261;27;20231;-61
2022/10/24 06:55:10;;;;;;;5.47;2.70;;;14.50;99.90;;;-141.84;91.10;15458.91;5109989;28;20281;-60
2022/10/24 06:57:38;;;;;;;6.75;2.58;;;14.50;99.90;;;-141.84;89.23;15686.28;5110378;28;20223;-62
2022/10/24 07:00:08;;;;;;;5.32;2.72;;;14.60;99.90;;;-141.84;89.18;15751.25;5106712;28;20219;-61
2022/10/24 07:02:37;;;;;;;5.75;2.40;;;14.70;99.90;;;-141.84;87.64;15929.91;5109442;28;20227;-61
2022/10/24 07:05:11;;;;;;;5.50;2.65;;;14.70;99.90;;;-141.84;86.85;16041.59;5110522;28;20254;-62
2022/10/24 07:07:42;;;;;;;5.80;2.60;;;14.80;99.90;;;-141.84;84.67;16216.19;5110251;28;20298;-61
2022/10/24 07:10:13;;;;;;;4.43;2.30;;;14.90;99.90;;;-141.84;83.88;16344.13;5110363;28;20699;-63
2022/10/24 07:12:42;;;;;;;5.40;2.47;;;15.00;99.90;;;-141.84;83.36;16419.25;5110666;28;20280;-61
2022/10/24 07:15:12;;;;;;;5.95;2.50;;;15.10;99.90;;;-141.84;81.69;16557.34;5108696;28;20246;-61
2022/10/24 07:17:41;;;;;;;5.15;2.60;;;15.10;99.90;;;-141.84;80.09;16679.19;5109302;28;20240;-62
2022/10/24 07:20:13;;;;;;;9.95;3.10;;;15.20;99.90;;;-141.84;80.09;16683.22;5109912;28;20238;-61
2022/10/24 07:22:44;;;;;;;7.65;2.78;;;15.30;99.90;;;-141.84;78.99;16807.13;5109985;28;20227;-62
2022/10/24 07:25:12;;;;;;;5.13;2.75;;;15.40;99.90;;;-141.84;78.78;16815.22;5109588;28;20645;-62
2022/10/24 07:27:41;;;;;;;4.20;2.55;;;15.50;99.90;;;-141.84;77.66;16926.94;5109197;28;20215;-62
2022/10/24 07:30:16;;;;;;;6.18;2.58;;;15.60;99.90;;;-141.84;76.65;17063.00;5107869;28;20223;-62
2022/10/24 07:32:45;;;;;;;6.10;2.40;;;15.70;99.90;;;-141.84;76.33;17081.28;5109638;28;20244;-61
2022/10/24 07:35:15;;;;;;;7.30;2.50;;;15.70;99.90;;;-141.84;76.15;17132.06;5108743;28;20604;-62
2022/10/24 07:37:43;;;;;;;4.38;2.22;;;15.80;99.90;;;-141.84;76.58;17154.38;5107779;28;20254;-61
2022/10/24 07:40:13;;;;;;;3.97;2.70;;;15.80;99.90;;;-141.84;75.02;17266.09;5108744;28;20246;-60
2022/10/24 07:42:41;;;;;;;6.65;2.85;;;15.90;99.90;;;-141.84;75.36;17233.59;5109583;28;20215;-62
2022/10/24 07:45:10;;;;;;;5.97;2.47;;;15.90;99.90;;;-141.84;74.21;17377.81;5109274;28;20627;-62
2022/10/24 07:47:38;;;;;;;8.68;2.40;;;16.00;99.90;;;-141.84;74.62;17369.69;5109104;28;20227;-61
2022/10/24 07:50:08;;;;;;;3.03;2.22;;;16.10;99.90;;;-141.84;75.21;17387.97;5108970;27;20330;-61
2022/10/24 07:52:37;;;;;;;6.68;2.60;;;16.00;99.90;;;-141.84;75.63;17363.59;5108967;28;20261;-61
2022/10/24 07:55:06;;;;;;;5.97;2.40;;;16.00;99.90;;;-141.84;75.15;17349.38;5109253;28;20683;-62
2022/10/24 07:57:34;;;;;;;7.45;2.50;;;16.00;99.90;;;-141.84;74.78;17428.59;5109728;28;20227;-63
2022/10/24 08:00:04;;;;;;;5.25;2.40;;;16.00;99.90;;;-141.84;74.25;17509.81;5109328;28;20235;-62
2022/10/24 08:02:32;;;;;;;7.05;2.83;;;16.10;99.90;;;-141.84;74.88;17481.38;5108707;28;20517;-62
2022/10/24 08:05:00;;;;;;;3.95;1.98;;;16.10;99.90;;;-141.84;74.13;17469.19;5092716;28;20232;-61
2022/10/24 08:07:28;;;;;;;5.07;2.40;;;16.20;99.90;;;-141.84;74.44;17485.44;5109651;28;20227;-61
2022/10/24 08:09:58;;;;;;;5.15;2.15;;;16.10;99.90;;;-141.84;74.36;17509.81;5109530;28;20417;-62
2022/10/24 08:12:26;;;;;;;4.75;2.33;;;16.10;99.90;;;-141.84;74.74;17522.00;5109504;28;20214;-62
2022/10/24 08:14:54;;;;;;;5.80;2.58;;;16.10;99.90;;;-141.84;74.22;17538.25;5109119;28;20223;-61
2022/10/24 08:17:23;;;;;;;7.00;2.50;;;16.10;99.90;;;-141.84;75.17;17507.78;5109287;28;20234;-61
2022/10/24 08:19:51;;;;;;;5.57;2.20;;;16.10;99.90;;;-141.84;75.46;17481.38;5108902;28;20234;-61
2022/10/24 08:22:20;;;;;;;4.15;2.30;;;16.10;99.90;;;-141.84;75.58;17515.91;5108686;28;20227;-60
2022/10/24 08:24:48;;;;;;;3.33;2.10;;;16.00;99.90;;;-141.84;75.37;17524.03;5109027;28;20622;-62
2022/10/24 08:27:17;;;;;;;6.35;2.70;;;16.00;99.90;;;-141.84;75.60;17536.22;5109145;28;20694;-62
2022/10/24 08:29:45;;;;;;;6.30;2.35;;;16.00;99.90;;;-141.84;74.33;17578.88;5108550;28;20305;-62
2022/10/24 08:32:13;;;;;;;4.85;2.22;;;16.20;99.90;;;-141.84;74.06;17578.88;5108700;28;20224;-61
2022/10/24 08:34:41;;;;;;;8.85;2.53;;;16.20;99.90;;;-141.84;74.29;17605.28;5108472;28;20744;-61
2022/10/24 08:37:09;;;;;;;7.38;2.65;;;16.20;99.90;;;-141.84;73.00;17672.31;5108531;28;20238;-63
2022/10/24 08:39:39;;;;;;;4.22;2.20;;;16.30;99.90;;;-141.84;73.04;17692.63;5109278;28;20219;-61
2022/10/24 08:42:14;;;;;;;5.72;2.38;;;16.40;99.90;;;-141.84;71.89;17784.03;5108634;28;20223;-61
2022/10/24 08:44:46;;;;;;;7.55;2.20;;;16.50;99.90;;;-141.84;71.75;17832.78;5108675;28;20223;-61
2022/10/24 08:47:27;;;;;;;5.72;2.45;;;16.70;99.90;;;-141.84;70.88;17865.28;5108617;28;20233;-61
2022/10/24 08:50:04;;;;;;;6.53;2.55;;;16.80;99.90;;;-141.84;71.48;17859.19;5108284;28;20264;-61
2022/10/24 08:52:38;;;;;;;6.20;2.15;;;16.80;99.90;;;-141.84;70.29;17930.31;5108219;28;20227;-60
2022/10/24 08:55:15;;;;;;;4.85;2.60;;;16.90;99.90;;;-141.84;69.87;17995.31;5108498;28;20219;-61
2022/10/24 08:58:05;;;;;;;4.50;2.10;;;17.00;99.90;;;-141.84;70.17;18037.97;5108488;28;20575;-61
2022/10/24 09:00:42;;;;;;;6.35;2.20;;;17.10;99.90;;;-141.84;70.48;18042.03;5108618;28;20296;-61
2022/10/24 09:03:20;;;;;;;5.53;2.58;;;17.10;99.90;;;-141.84;70.63;18080.63;5103559;28;20223;-62
2022/10/24 09:06:16;;;;;;;5.60;2.40;;;17.10;99.90;;;-141.84;69.41;18127.34;5093712;28;20226;-61
2022/10/24 09:08:52;;;;;;;4.82;2.08;;;17.20;99.90;;;-141.84;69.87;18125.31;5108042;28;20267;-61
2022/10/24 09:11:32;;;;;;;5.90;2.60;;;17.30;99.90;;;-141.84;68.54;18190.31;5108238;28;20226;-61
2022/10/24 09:14:02;;;;;;;7.00;2.50;;;17.40;99.90;;;-141.84;69.25;18188.28;5107992;28;20222;-60
2022/10/24 09:16:32;;;;;;;4.47;2.05;;;17.40;99.90;;;-141.84;69.94;18190.31;5106599;28;20227;-61
2022/10/24 09:19:00;;;;;;;7.53;2.28;;;17.30;99.90;;;-141.84;68.39;18255.34;5106441;28;20219;-61
2022/10/24 09:21:28;;;;;;;4.28;2.35;;;17.40;99.90;;;-141.84;69.59;18267.53;5107213;28;20228;-61
2022/10/24 09:23:57;;;;;;;5.10;2.08;;;17.30;99.90;;;-141.84;69.17;18222.81;5110398;28;20527;-61
2022/10/24 09:26:30;;;;;;;2.63;1.65;;;17.30;99.90;;;-141.84;69.76;18218.75;5111448;28;20231;-61
2022/10/24 09:28:59;;;;;;;8.30;2.30;;;17.30;99.90;;;-141.84;68.68;18298.00;5111867;28;20235;-60
2022/10/24 09:31:27;;;;;;;6.47;2.67;;;17.30;99.90;;;-141.84;68.78;18279.72;5111580;28;20234;-60
2022/10/24 09:33:59;;;;;;;6.72;2.60;;;17.40;99.90;;;-141.84;69.00;18306.13;5112054;28;20570;-62
2022/10/24 09:36:30;;;;;;;5.00;2.00;;;17.30;99.90;;;-141.84;69.18;18334.56;5112706;28;20418;-61
2022/10/24 09:39:29;;;;;;;4.07;1.88;;;17.40;99.90;;;-141.84;68.88;18373.16;5112083;27;20227;-61
2022/10/24 09:41:59;;;;;;;5.43;1.90;;;17.50;99.90;;;-141.84;68.64;18379.25;5111778;27;20228;-61
2022/10/24 09:44:42;;;;;;;5.82;2.45;;;17.60;99.90;;;-141.84;68.17;18360.97;5111698;28;20901;-61
2022/10/24 09:47:26;;;;;;;5.10;2.00;;;17.60;99.90;;;-141.84;68.24;18409.72;5112066;28;20227;-62
2022/10/24 09:49:57;;;;;;;6.57;2.38;;;17.60;99.90;;;-141.84;68.18;18423.94;5111239;28;20603;-61
2022/10/24 09:52:30;;;;;;;4.57;2.13;;;17.60;99.90;;;-141.84;68.53;18446.31;5111884;28;20678;-62
2022/10/24 09:55:17;;;;;;;5.47;2.15;;;17.60;99.90;;;-141.84;68.33;18450.38;5111322;28;20226;-62
2022/10/24 09:57:45;;;;;;;5.53;2.55;;;17.70;99.90;;;-141.84;68.05;18482.88;5096764;28;20736;-61
2022/10/24 10:00:27;;;;;;;3.70;2.38;;;17.70;99.90;;;-141.84;67.59;18517.41;5111421;27;20689;-60
2022/10/24 10:03:05;;;;;;;4.95;2.10;;;17.80;99.90;;;-141.84;67.12;18553.97;5112039;28;20296;-61
2022/10/24 10:05:47;;;;;;;5.95;2.40;;;17.80;99.90;;;-141.84;67.17;18574.28;5112170;28;20223;-61
2022/10/24 10:08:22;;;;;;;6.50;2.60;;;17.80;99.90;;;-141.84;67.93;18590.56;5111502;28;20627;-61
2022/10/24 10:11:01;;;;;;;5.97;2.60;;;17.70;99.90;;;-141.84;67.84;18560.06;5111365;27;20225;-62
2022/10/24 10:13:31;;;;;;;4.43;2.50;;;17.70;99.90;;;-141.84;68.27;18527.56;5096063;28;20234;-60
2022/10/24 10:16:02;;;;;;;4.28;2.40;;;17.70;99.90;;;-141.84;68.08;18578.38;5111312;28;20686;-61
2022/10/24 10:18:41;;;;;;;8.85;2.92;;;17.70;99.90;;;-141.84;68.09;18560.06;5111643;28;20694;-61